Time;durP1;ratioP1;P1;durP2;ratioP2;P2;SDS_P1;SDS_P2;PMS_P1;PMS_P2;Temp;Humidity;BMP_temperature;BMP_pressure;BME280_temperature;BME280_humidity;BME280_pressure;Samples;Min_cycle;Max_cycle;Signal;HPM_P1;HPM_P2
2022/04/12 00:01:46;;;;;;;;;17.00;17.00;;;;;8.86;41.50;99883.97;5071480;28;9604;-81
2022/04/12 00:04:16;;;;;;;;;16.80;16.00;;;;;8.82;41.55;99887.38;5088793;28;8967;-79
2022/04/12 00:06:46;;;;;;;;;18.40;16.60;;;;;8.84;41.75;99883.06;5071127;28;8861;-80
2022/04/12 00:09:15;;;;;;;;;17.00;15.60;;;;;8.85;41.69;99883.97;5052337;28;8878;-81
2022/04/12 00:11:44;;;;;;;;;18.00;15.60;;;;;8.92;41.34;99886.66;5052694;28;8972;-81
2022/04/12 00:14:13;;;;;;;;;19.80;12.80;;;;;8.90;41.65;99884.88;4997389;28;9006;-81
2022/04/12 00:16:42;;;;;;;;;16.80;16.00;;;;;8.88;41.48;99897.84;5029857;28;8876;-81
2022/04/12 00:19:12;;;;;;;;;16.20;14.60;;;;;8.93;41.92;99887.53;5030935;28;8918;-80
2022/04/12 00:21:42;;;;;;;;;17.00;14.60;;;;;9.07;41.50;99878.13;5031733;28;8949;-82
2022/04/12 00:24:12;;;;;;;;;12.00;11.60;;;;;9.13;40.67;99879.91;5015240;28;8860;-83
2022/04/12 00:26:41;;;;;;;;;13.40;11.00;;;;;9.17;40.26;99874.78;4996411;28;8864;-79
2022/04/12 00:29:10;;;;;;;;;13.20;12.20;;;;;9.15;40.50;99878.22;5045982;28;8902;-80
2022/04/12 00:31:39;;;;;;;;;6.80;6.60;;;;;9.15;40.36;99878.22;5028865;28;8871;-82
2022/04/12 00:34:08;;;;;;;;;5.00;5.00;;;;;9.16;40.62;99870.41;5045473;28;8856;-84
2022/04/12 00:36:37;;;;;;;;;11.00;11.00;;;;;9.14;40.86;99876.47;5012807;28;8868;-81
2022/04/12 00:39:06;;;;;;;;;11.00;10.80;;;;;9.27;40.48;99870.53;5012726;28;9648;-80
2022/04/12 00:41:37;;;;;;;;;11.00;8.00;;;;;9.29;40.33;99873.16;4997714;28;8977;-81
2022/04/12 00:44:07;;;;;;;;;12.00;12.00;;;;;9.30;39.84;99870.59;4964170;28;8867;-80
2022/04/12 00:46:36;;;;;;;;;14.80;13.20;;;;;9.31;40.41;99867.09;5035198;28;8947;-81
2022/04/12 00:49:04;;;;;;;;;10.80;10.00;;;;;9.38;40.17;99852.44;5048825;28;8842;-81
2022/04/12 00:51:34;;;;;;;;;8.00;6.60;;;;;9.38;40.18;99852.44;5060086;28;8838;-81
2022/04/12 00:54:03;;;;;;;;;9.20;8.00;;;;;9.33;39.73;99857.56;5056826;28;8947;-83
2022/04/12 00:56:32;;;;;;;;;10.00;7.00;;;;;9.32;40.21;99853.25;5053776;28;9673;-81
2022/04/12 00:59:03;;;;;;;;;8.00;8.00;;;;;9.37;40.02;99850.69;5056986;28;8950;-81
2022/04/12 01:01:33;;;;;;;;;10.60;10.00;;;;;9.24;39.42;99860.09;5098513;28;8907;-81
2022/04/12 01:04:02;;;;;;;;;8.20;7.80;;;;;9.25;39.49;99854.03;5055631;28;8947;-82
2022/04/12 01:06:31;;;;;;;;;9.60;9.40;;;;;9.29;40.30;99852.34;5032133;28;9590;-82
2022/04/12 01:09:04;;;;;;;;;10.20;10.20;;;;;9.29;39.87;99839.34;5050629;28;8860;-80
2022/04/12 01:11:34;;;;;;;;;11.60;10.80;;;;;9.24;39.91;99844.47;5050323;28;8853;-79
2022/04/12 01:14:05;;;;;;;;;8.80;7.80;;;;;9.32;39.46;99842.84;5049053;28;8934;-81
2022/04/12 01:16:34;;;;;;;;;8.00;7.20;;;;;9.42;39.73;99833.38;5066774;28;8857;-81
2022/04/12 01:19:03;;;;;;;;;8.80;8.40;;;;;9.44;39.10;99834.25;5069113;28;8849;-83
2022/04/12 01:21:40;;;;;;;;;11.80;7.80;;;;;9.43;39.34;99831.63;5048740;28;8884;-81
2022/04/12 01:24:10;;;;;;;;;15.40;13.00;;;;;9.50;39.39;99833.44;4998521;28;8895;-80
2022/04/12 01:26:40;;;;;;;;;11.60;11.20;;;;;9.48;39.76;99832.56;5018844;28;8825;-80
2022/04/12 01:29:09;;;;;;;;;12.80;11.20;;;;;9.40;40.06;99831.63;5033555;28;8837;-79
2022/04/12 01:31:38;;;;;;;;;11.00;11.00;;;;;9.45;39.35;99822.09;5014802;28;8877;-82
2022/04/12 01:34:07;;;;;;;;;10.80;9.80;;;;;9.38;40.25;99822.94;5014591;28;8857;-80
2022/04/12 01:36:36;;;;;;;;;10.60;10.60;;;;;9.45;39.87;99822.09;5033128;28;8849;-78
2022/04/12 01:39:05;;;;;;;;;12.00;9.80;;;;;9.38;39.49;99816.00;5053650;28;8871;-79
2022/04/12 01:41:35;;;;;;;;;8.20;7.20;;;;;9.42;39.10;99812.56;5032996;28;8864;-79
2022/04/12 01:44:05;;;;;;;;;11.40;10.60;;;;;9.41;40.09;99815.13;5049558;28;8876;-79
2022/04/12 01:46:34;;;;;;;;;7.80;7.00;;;;;9.47;39.27;99812.56;5029965;28;8978;-81
2022/04/12 01:49:03;;;;;;;;;8.80;8.40;;;;;9.45;39.47;99817.78;5046570;28;8860;-78
2022/04/12 01:51:32;;;;;;;;;13.20;11.40;;;;;9.41;40.00;99815.13;5030335;28;8856;-80
2022/04/12 01:54:01;;;;;;;;;12.00;12.00;;;;;9.30;40.09;99815.03;5013686;28;8870;-81
2022/04/12 01:56:31;;;;;;;;;4.20;4.20;;;;;9.31;39.81;99820.25;5046707;28;8856;-79
2022/04/12 01:59:02;;;;;;;;;5.20;4.60;;;;;9.28;39.97;99824.56;5006867;28;8881;-81
2022/04/12 02:01:31;;;;;;;;;3.00;2.40;;;;;9.26;39.12;99810.66;4990733;28;8857;-80
2022/04/12 02:04:00;;;;;;;;;9.80;7.00;;;;;9.27;38.82;99809.81;4990386;28;8869;-81
2022/04/12 02:06:30;;;;;;;;;10.80;10.80;;;;;9.33;39.33;99813.34;4990508;28;9082;-81
2022/04/12 02:08:59;;;;;;;;;11.60;11.40;;;;;9.40;39.27;99814.28;4990512;28;8873;-82
2022/04/12 02:11:27;;;;;;;;;7.40;7.40;;;;;9.35;38.90;99808.16;4974359;28;8857;-80
2022/04/12 02:13:56;;;;;;;;;8.80;8.00;;;;;9.40;38.48;99809.06;4990416;28;8873;-82
2022/04/12 02:16:26;;;;;;;;;15.80;13.40;;;;;9.43;39.33;99811.69;4990611;28;8907;-80
2022/04/12 02:18:55;;;;;;;;;10.40;10.40;;;;;9.41;39.56;99809.94;5009411;28;8883;-80
2022/04/12 02:21:24;;;;;;;;;12.40;11.20;;;;;9.44;39.39;99804.75;5026895;28;9653;-82
2022/04/12 02:23:53;;;;;;;;;7.40;7.40;;;;;9.43;38.85;99803.88;5043628;28;8969;-82
2022/04/12 02:26:22;;;;;;;;;9.60;9.40;;;;;9.49;38.71;99793.53;5026355;28;8886;-80
2022/04/12 02:28:51;;;;;;;;;8.00;7.40;;;;;9.48;38.66;99791.78;5027005;28;8856;-79
2022/04/12 02:31:20;;;;;;;;;9.80;8.00;;;;;9.41;38.01;99789.97;5029376;28;8848;-82
2022/04/12 02:33:51;;;;;;;;;7.80;7.80;;;;;9.35;38.64;99793.41;5064641;28;9598;-81
2022/04/12 02:36:20;;;;;;;;;7.00;6.80;;;;;9.42;38.34;99793.47;5064068;28;8848;-81
2022/04/12 02:38:49;;;;;;;;;7.60;7.60;;;;;9.33;38.45;99789.91;5047874;28;8945;-82
2022/04/12 02:41:17;;;;;;;;;7.00;7.00;;;;;9.28;37.70;99793.34;5048187;28;8845;-82
2022/04/12 02:43:46;;;;;;;;;8.20;7.20;;;;;9.18;38.06;99788.03;5075434;28;8936;-81
2022/04/12 02:46:15;;;;;;;;;7.60;7.20;;;;;9.15;38.18;99793.25;5051424;28;8947;-79
2022/04/12 02:48:44;;;;;;;;;7.40;7.40;;;;;9.20;38.17;99787.19;5018548;28;8990;-80
2022/04/12 02:51:15;;;;;;;;;9.60;9.60;;;;;9.03;38.44;99790.50;5081425;28;8877;-82
2022/04/12 02:53:44;;;;;;;;;8.40;8.40;;;;;8.93;38.94;99791.28;5073206;28;8866;-80
2022/04/12 02:56:13;;;;;;;;;8.80;7.00;;;;;8.84;38.67;99786.00;5001815;28;8862;-80
2022/04/12 02:58:42;;;;;;;;;11.20;8.80;;;;;8.87;38.99;99791.25;5085448;28;8866;-81
2022/04/12 03:01:11;;;;;;;;;7.40;7.00;;;;;8.94;38.47;99793.91;5068385;28;8862;-81
2022/04/12 03:03:41;;;;;;;;;8.80;7.60;;;;;9.01;38.29;99791.38;5051747;28;8956;-81
2022/04/12 03:06:10;;;;;;;;;10.00;8.00;;;;;9.03;38.95;99795.72;5070281;28;8868;-81
2022/04/12 03:08:40;;;;;;;;;8.00;8.00;;;;;9.05;38.62;99790.53;5050798;28;8880;-80
2022/04/12 03:11:09;;;;;;;;;9.60;8.00;;;;;9.08;38.57;99798.38;5048631;28;9737;-80
2022/04/12 03:13:39;;;;;;;;;9.00;7.20;;;;;9.08;38.35;99803.56;5048195;28;8949;-79
2022/04/12 03:16:08;;;;;;;;;6.60;6.20;;;;;9.08;38.42;99795.78;5046618;28;8857;-79
2022/04/12 03:18:37;;;;;;;;;7.60;7.60;;;;;9.05;39.15;99803.53;5080298;28;9606;-81
2022/04/12 03:21:06;;;;;;;;;8.00;8.00;;;;;9.08;38.43;99801.84;5050537;28;8857;-79
2022/04/12 03:23:36;;;;;;;;;13.60;11.40;;;;;9.22;38.35;99799.34;5051287;28;8872;-81
2022/04/12 03:26:07;;;;;;;;;12.20;10.00;;;;;9.32;38.78;99800.34;5064680;28;8849;-80
2022/04/12 03:28:36;;;;;;;;;9.00;7.60;;;;;9.35;38.53;99803.81;5046165;28;8858;-80
2022/04/12 03:31:05;;;;;;;;;10.00;10.00;;;;;9.32;38.20;99803.81;5007526;28;8850;-80
2022/04/12 03:33:35;;;;;;;;;10.00;10.00;;;;;9.30;38.55;99802.03;5011103;28;8861;-78
2022/04/12 03:36:04;;;;;;;;;3.00;2.20;;;;;9.24;38.43;99797.63;5014972;28;8985;-81
2022/04/12 03:38:35;;;;;;;;;13.00;10.80;;;;;9.22;38.59;99793.28;5013260;28;9613;-83
2022/04/12 03:41:04;;;;;;;;;10.20;7.40;;;;;9.20;38.59;99793.28;5012725;28;8863;-82
2022/04/12 03:43:35;;;;;;;;;13.40;12.60;;;;;9.18;38.08;99797.59;5012662;28;8875;-81
2022/04/12 03:46:04;;;;;;;;;11.00;11.00;;;;;9.15;38.30;99794.97;4996543;28;8887;-81
2022/04/12 03:48:34;;;;;;;;;9.60;8.20;;;;;9.15;38.15;99808.00;5032534;28;8878;-81
2022/04/12 03:51:02;;;;;;;;;13.00;11.80;;;;;9.15;38.44;99805.38;5032764;28;9706;-81
2022/04/12 03:53:32;;;;;;;;;10.00;10.00;;;;;9.08;38.82;99812.25;5032095;28;8884;-82
2022/04/12 03:56:07;;;;;;;;;15.40;14.40;;;;;9.22;38.81;99804.56;5032438;28;9024;-79
2022/04/12 03:58:39;;;;;;;;;11.80;11.80;;;;;9.30;38.63;99804.63;5032127;28;8851;-80
2022/04/12 04:01:08;;;;;;;;;12.60;11.80;;;;;9.29;38.18;99801.16;5036132;28;8872;-81
2022/04/12 04:03:38;;;;;;;;;12.20;10.60;;;;;9.31;38.44;99796.84;5053320;28;8848;-78
2022/04/12 04:06:07;;;;;;;;;14.20;12.40;;;;;9.34;38.37;99799.47;5035827;28;9657;-79
2022/04/12 04:08:36;;;;;;;;;15.20;15.20;;;;;9.38;38.37;99815.13;5052896;28;9314;-79
2022/04/12 04:11:05;;;;;;;;;10.80;10.80;;;;;9.42;38.45;99809.09;5036117;28;8874;-81
2022/04/12 04:13:36;;;;;;;;;7.40;7.40;;;;;9.40;37.73;99816.00;5052510;28;8836;-81
2022/04/12 04:16:07;;;;;;;;;14.00;11.00;;;;;9.40;37.61;99808.22;5063411;28;8940;-79
2022/04/12 04:18:36;;;;;;;;;13.40;12.20;;;;;9.54;37.78;99815.25;5068700;28;8898;-80
2022/04/12 04:21:06;;;;;;;;;8.20;8.20;;;;;9.62;37.67;99815.34;5034968;28;8842;-79
2022/04/12 04:23:35;;;;;;;;;11.00;10.60;;;;;9.70;37.43;99823.19;5034281;28;8899;-79
2022/04/12 04:26:04;;;;;;;;;10.00;10.00;;;;;9.77;36.96;99822.34;5051631;28;8864;-80
2022/04/12 04:28:34;;;;;;;;;12.80;12.00;;;;;9.86;37.12;99814.59;5051892;28;8860;-81
2022/04/12 04:31:02;;;;;;;;;19.50;19.50;;;;;9.75;37.59;99817.16;5068610;28;8953;-81
2022/04/12 04:33:33;;;;;;;;;18.80;16.80;;;;;9.87;37.55;99828.53;5045719;28;8856;-82
2022/04/12 04:36:02;;;;;;;;;21.00;19.50;;;;;10.00;37.49;99822.53;5017457;28;8854;-80
2022/04/12 04:38:31;;;;;;;;;23.50;18.25;;;;;10.03;37.39;99819.06;5050181;28;8850;-80
2022/04/12 04:41:01;;;;;;;;;23.60;21.40;;;;;10.22;37.34;99822.66;5045456;28;8832;-79
2022/04/12 04:43:36;;;;;;;;;20.50;17.25;;;;;10.37;37.38;99830.56;5050544;28;9624;-81
2022/04/12 04:46:05;;;;;;;;;25.75;24.25;;;;;10.51;37.48;99826.31;5017928;28;8880;-82
2022/04/12 04:48:35;;;;;;;;;32.25;28.75;;;;;10.60;36.71;99829.81;5031009;28;8877;-76
2022/04/12 04:51:04;;;;;;;;;22.25;19.50;;;;;10.71;37.16;99833.31;5031113;28;8884;-77
2022/04/12 04:53:33;;;;;;;;;29.75;29.75;;;;;10.84;37.18;99829.03;5016446;28;8884;-77
2022/04/12 04:56:02;;;;;;;;;31.00;28.00;;;;;10.95;36.84;99827.31;5019132;28;8876;-76
2022/04/12 04:58:30;;;;;;;;;29.75;28.75;;;;;11.09;36.66;99832.56;5017138;28;8872;-77
2022/04/12 05:00:59;;;;;;;;;28.50;28.50;;;;;11.20;36.80;99829.97;5052298;28;8884;-76
2022/04/12 05:03:28;;;;;;;;;33.75;31.75;;;;;11.30;36.36;99829.09;5050663;28;8857;-77
2022/04/12 05:05:58;;;;;;;;;47.75;41.50;;;;;11.40;36.44;99824.75;5049965;28;8914;-79
2022/04/12 05:08:26;;;;;;;;;51.75;43.50;;;;;11.50;36.38;99829.13;5048358;28;8864;-79
2022/04/12 05:10:55;;;;;;;;;47.50;41.25;;;;;11.60;36.34;99827.38;5064772;28;8857;-77
2022/04/12 05:13:24;;;;;;;;;40.25;38.00;;;;;11.72;36.57;99837.84;5049281;28;8879;-80
2022/04/12 05:15:52;;;;;;;;;44.00;38.25;;;;;11.82;36.92;99831.72;5034319;28;8869;-75
2022/04/12 05:18:21;;;;;;;;;46.25;40.75;;;;;11.94;37.36;99835.22;5051123;28;8838;-76
2022/04/12 05:20:50;;;;;;;;;21.25;21.25;;;;;11.96;36.28;99834.34;5101430;28;8834;-78
2022/04/12 05:23:20;;;;;;;;;33.75;33.00;;;;;11.94;35.50;99837.84;5049135;28;8864;-79
2022/04/12 05:25:52;;;;;;;;;34.75;31.25;;;;;11.94;34.99;99837.84;5048263;28;8937;-77
2022/04/12 05:28:21;;;;;;;;;47.75;38.50;;;;;12.06;36.40;99835.19;5049088;28;8837;-76
2022/04/12 05:30:50;;;;;;;;;36.25;32.00;;;;;12.16;35.51;99842.16;5058149;28;8859;-78
2022/04/12 05:33:19;;;;;;;;;39.50;33.25;;;;;12.31;35.90;99843.88;5049547;28;8876;-78
2022/04/12 05:35:47;;;;;;;;;44.50;38.75;;;;;12.43;35.95;99840.34;5083927;28;8859;-79
2022/04/12 05:38:16;;;;;;;;;40.00;36.50;;;;;12.56;36.61;99843.78;5075747;28;8862;-76
2022/04/12 05:40:49;;;;;;;;;46.50;38.75;;;;;12.62;36.15;99838.53;5034426;28;8877;-77
2022/04/12 05:43:21;;;;;;;;;54.50;44.50;;;;;12.69;36.23;99845.47;5065871;28;8845;-77
2022/04/12 05:45:49;;;;;;;;;48.75;41.75;;;;;12.83;36.28;99851.50;5044555;28;8845;-78
2022/04/12 05:48:18;;;;;;;;;55.75;45.75;;;;;13.04;35.43;99852.25;5050100;28;8949;-77
2022/04/12 05:50:47;;;;;;;;;57.75;48.00;;;;;13.26;34.76;99853.00;5065612;28;8856;-79
2022/04/12 05:53:16;;;;;;;;;56.50;44.75;;;;;13.41;35.46;99857.31;5062252;28;8902;-77
2022/04/12 05:55:44;;;;;;;;;56.00;46.25;;;;;13.55;35.23;99858.06;5045287;28;8847;-78
2022/04/12 05:58:15;;;;;;;;;53.25;44.50;;;;;13.69;35.74;99860.59;5065680;28;8871;-77
2022/04/12 06:00:43;;;;;;;;;53.50;43.00;;;;;13.70;35.04;99858.84;5065379;28;8884;-77
2022/04/12 06:03:12;;;;;;;;;53.75;44.50;;;;;13.80;34.29;99863.13;5065287;28;8994;-77
2022/04/12 06:05:41;;;;;;;;;52.50;43.50;;;;;13.83;34.62;99863.09;5048548;28;8986;-74
2022/04/12 06:08:09;;;;;;;;;42.50;38.50;;;;;13.96;34.22;99861.25;4988004;28;8952;-77
2022/04/12 06:10:38;;;;;;;;;50.50;40.00;;;;;14.02;34.05;99863.78;5048624;28;8856;-76
2022/04/12 06:13:07;;;;;;;;;44.25;38.50;;;;;14.02;34.12;99867.28;5065534;28;8844;-78
2022/04/12 06:15:37;;;;;;;;;46.00;40.25;;;;;14.14;34.20;99866.31;5048585;28;8966;-77
2022/04/12 06:18:10;;;;;;;;;54.00;44.25;;;;;14.22;33.71;99869.72;5049209;28;8844;-78
2022/04/12 06:20:39;;;;;;;;;55.25;44.25;;;;;14.24;33.80;99875.81;5045310;28;8875;-79
2022/04/12 06:23:08;;;;;;;;;43.25;37.50;;;;;14.37;33.50;99876.56;5045833;28;8880;-78
2022/04/12 06:25:36;;;;;;;;;54.00;44.75;;;;;13.96;34.01;99877.81;5046354;28;8938;-78
2022/04/12 06:28:07;;;;;;;;;48.00;41.50;;;;;14.08;34.29;99873.34;5043061;28;8881;-79
2022/04/12 06:30:37;;;;;;;;;48.00;40.50;;;;;14.35;34.91;99875.72;4998003;28;8865;-78
2022/04/12 06:33:06;;;;;;;;;49.00;42.25;;;;;14.57;35.09;99880.75;5031553;28;8879;-76
2022/04/12 06:35:35;;;;;;;;;47.50;38.50;;;;;14.69;33.54;99879.72;5047789;28;9620;-76
2022/04/12 06:38:04;;;;;;;;;40.75;36.25;;;;;14.09;34.13;99878.59;5046960;28;8889;-76
2022/04/12 06:40:34;;;;;;;;;36.25;32.25;;;;;14.30;33.93;99888.00;5038726;28;8913;-77
2022/04/12 06:43:03;;;;;;;;;22.40;19.80;;;;;14.57;32.98;99878.13;5042723;28;8865;-79
2022/04/12 06:45:32;;;;;;;;;15.40;14.80;;;;;14.79;31.71;99884.84;5026646;28;8856;-78
2022/04/12 06:48:02;;;;;;;;;9.00;9.00;;;;;14.99;30.10;99875.88;5046168;28;8883;-78
2022/04/12 06:50:32;;;;;;;;;7.60;7.40;;;;;15.10;29.93;99876.56;5036624;28;8869;-68
2022/04/12 06:53:01;;;;;;;;;8.80;8.80;;;;;15.28;29.91;99887.72;5029430;28;8852;-77
2022/04/12 06:55:30;;;;;;;;;6.60;5.40;;;;;15.38;29.38;99877.03;5051539;28;8887;-77
2022/04/12 06:57:58;;;;;;;;;6.00;6.00;;;;;15.53;28.86;99875.94;5039356;28;8966;-78
2022/04/12 07:00:27;;;;;;;;;7.00;6.00;;;;;15.66;28.39;99870.50;5051676;28;8877;-77
2022/04/12 07:02:56;;;;;;;;;7.80;7.80;;;;;15.84;28.55;99870.25;5054943;28;8889;-78
2022/04/12 07:05:26;;;;;;;;;8.60;7.60;;;;;15.98;28.38;99870.00;5034525;28;8829;-78
2022/04/12 07:07:55;;;;;;;;;6.20;6.20;;;;;16.11;28.10;99868.03;5050051;28;9678;-78
2022/04/12 07:10:24;;;;;;;;;6.60;6.60;;;;;16.22;27.21;99866.06;5051499;28;8907;-79
2022/04/12 07:12:53;;;;;;;;;7.60;7.60;;;;;16.25;27.78;99867.75;5051022;28;8887;-78
2022/04/12 07:15:23;;;;;;;;;9.00;6.80;;;;;16.23;26.95;99865.16;5049211;28;9003;-79
2022/04/12 07:17:52;;;;;;;;;6.00;6.00;;;;;16.33;26.47;99877.25;5052623;28;9000;-78
2022/04/12 07:20:21;;;;;;;;;7.80;7.60;;;;;16.43;26.85;99879.72;5069354;28;8842;-78
2022/04/12 07:22:51;;;;;;;;;4.80;4.80;;;;;16.47;26.37;99882.25;5052815;28;8859;-77
2022/04/12 07:25:20;;;;;;;;;6.80;4.80;;;;;16.61;25.87;99879.34;5083003;28;8834;-78
2022/04/12 07:27:49;;;;;;;;;6.00;6.00;;;;;16.66;25.68;99874.84;5085442;28;8849;-76
2022/04/12 07:30:18;;;;;;;;;6.60;6.00;;;;;16.75;25.68;99877.31;5049139;28;8873;-77
2022/04/12 07:33:07;;;;;;;;;6.00;5.40;;;;;16.83;25.35;99876.31;5067444;28;8863;-78
2022/04/12 07:35:36;;;;;;;;;4.00;4.00;;;;;16.97;25.34;99881.28;5068937;28;8969;-77
2022/04/12 07:38:06;;;;;;;;;6.60;4.20;;;;;17.04;25.25;99873.22;5069023;28;8963;-76
2022/04/12 07:40:35;;;;;;;;;10.00;8.80;;;;;17.07;24.81;99869.63;5083851;28;8862;-80
2022/04/12 07:43:04;;;;;;;;;6.20;6.20;;;;;17.07;24.57;99870.53;5102434;28;8862;-77
2022/04/12 07:45:33;;;;;;;;;6.00;6.00;;;;;17.19;24.17;99874.66;5085622;28;8904;-77
2022/04/12 07:48:02;;;;;;;;;6.60;6.60;;;;;17.26;23.56;99873.63;5064275;28;8841;-78
2022/04/12 07:50:30;;;;;;;;;6.80;5.00;;;;;17.22;23.44;99869.31;5050391;28;8964;-78
2022/04/12 07:52:59;;;;;;;;;7.00;6.40;;;;;16.51;23.88;99878.66;5049675;28;8981;-77
2022/04/12 07:55:29;;;;;;;;;14.00;12.80;;;;;16.73;24.08;99875.63;5094424;28;8857;-76
2022/04/12 07:57:58;;;;;;;;;5.00;5.00;;;;;16.85;24.36;99874.53;5068451;28;8874;-77
2022/04/12 08:00:27;;;;;;;;;6.40;5.80;;;;;16.96;24.39;99875.16;5069770;28;8968;-79
2022/04/12 08:02:56;;;;;;;;;6.40;6.40;;;;;17.09;24.16;99868.72;5059980;28;8845;-79
2022/04/12 08:05:25;;;;;;;;;4.00;4.00;;;;;17.12;23.53;99876.53;5065270;28;8983;-77
2022/04/12 08:07:54;;;;;;;;;6.40;6.40;;;;;17.29;23.60;99880.56;5050218;28;9694;-80
2022/04/12 08:10:24;;;;;;;;;3.80;3.80;;;;;17.42;24.03;99871.47;5082199;28;8945;-79
2022/04/12 08:12:55;;;;;;;;;5.60;4.60;;;;;17.41;23.80;99882.94;5083255;28;9076;-79
2022/04/12 08:15:26;;;;;;;;;6.00;6.00;;;;;17.48;24.17;99883.66;5082773;28;8857;-82
2022/04/12 08:17:54;;;;;;;;;4.60;4.60;;;;;17.56;23.98;99881.72;5045101;28;8965;-78
2022/04/12 08:20:23;;;;;;;;;7.40;6.40;;;;;17.65;23.69;99877.97;5093903;28;8865;-79
2022/04/12 08:22:53;;;;;;;;;6.20;6.20;;;;;17.71;23.50;99881.34;5069217;28;8841;-79
2022/04/12 08:25:21;;;;;;;;;7.60;7.60;;;;;17.71;23.58;99878.72;4984822;28;8892;-79
2022/04/12 08:27:50;;;;;;;;;6.80;6.00;;;;;17.86;24.02;99882.78;5085440;28;8838;-77
2022/04/12 08:30:21;;;;;;;;;6.80;5.80;;;;;17.89;23.44;99887.97;5059267;28;9555;-77
2022/04/12 08:32:49;;;;;;;;;6.80;6.80;;;;;17.89;23.78;99879.19;5050135;28;8983;-78
2022/04/12 08:35:19;;;;;;;;;5.80;5.80;;;;;18.01;23.72;99889.41;5061918;28;8850;-79
2022/04/12 08:37:47;;;;;;;;;6.00;6.00;;;;;17.84;23.88;99886.31;5048253;28;9028;-78
2022/04/12 08:40:18;;;;;;;;;7.80;7.80;;;;;17.97;23.78;99889.53;5075937;28;8854;-78
2022/04/12 08:42:48;;;;;;;;;8.80;8.80;;;;;18.11;23.75;99876.88;5056294;28;8865;-80
2022/04/12 08:45:16;;;;;;;;;9.80;7.40;;;;;18.12;24.12;99871.53;5064671;28;8961;-67
2022/04/12 08:47:47;;;;;;;;;9.40;8.60;;;;;18.12;23.15;99874.16;5047347;28;8894;-69
2022/04/12 08:50:16;;;;;;;;;10.20;9.40;;;;;18.19;23.82;99874.88;5048588;28;8837;-69
2022/04/12 08:52:45;;;;;;;;;7.60;7.60;;;;;18.11;24.27;99872.44;5059018;28;8858;-67
2022/04/12 08:55:15;;;;;;;;;9.00;9.00;;;;;18.17;24.25;99867.94;5068030;28;8835;-66
2022/04/12 08:57:44;;;;;;;;;8.80;8.00;;;;;18.16;23.99;99866.19;5048732;28;8888;-69
2022/04/12 09:00:14;;;;;;;;;8.60;8.60;;;;;18.06;24.35;99874.34;5029821;28;8849;-68
2022/04/12 09:02:42;;;;;;;;;10.80;10.80;;;;;18.16;24.40;99869.69;5055096;28;8874;-66
2022/04/12 09:05:13;;;;;;;;;8.20;8.20;;;;;18.06;24.01;99865.56;5056272;28;8837;-67
2022/04/12 09:07:47;;;;;;;;;12.20;10.00;;;;;17.83;23.98;99874.03;5048800;28;8845;-67
2022/04/12 09:10:19;;;;;;;;;12.00;12.00;;;;;17.88;25.32;99859.84;5048456;28;9696;-68
2022/04/12 09:12:48;;;;;;;;;13.60;12.80;;;;;17.97;25.61;99860.53;5047931;28;8880;-69
2022/04/12 09:15:17;;;;;;;;;17.40;16.00;;;;;18.08;25.63;99859.31;5062448;28;8856;-68
2022/04/12 09:17:48;;;;;;;;;17.80;16.40;;;;;18.11;25.45;99855.75;5048898;28;8837;-79
2022/04/12 09:20:19;;;;;;;;;13.00;13.00;;;;;18.16;25.35;99858.25;5080233;28;8865;-78
2022/04/12 09:22:48;;;;;;;;;16.80;16.80;;;;;18.26;25.36;99857.09;5041832;28;8862;-79
2022/04/12 09:25:17;;;;;;;;;13.00;12.60;;;;;18.30;24.98;99858.78;5068109;28;8861;-79
2022/04/12 09:27:49;;;;;;;;;20.20;17.40;;;;;18.36;25.64;99847.19;5049999;28;8911;-79
2022/04/12 09:30:20;;;;;;;;;20.40;17.60;;;;;18.24;25.24;99848.34;5049068;28;8854;-79
2022/04/12 09:32:50;;;;;;;;;14.80;13.80;;;;;18.29;25.08;99852.59;5049897;28;8858;-80
2022/04/12 09:35:21;;;;;;;;;15.40;15.40;;;;;18.39;25.79;99844.44;5066516;28;8858;-79
2022/04/12 09:37:50;;;;;;;;;12.60;11.40;;;;;18.38;26.27;99838.28;5045909;28;9681;-79
2022/04/12 09:40:19;;;;;;;;;15.60;14.00;;;;;18.38;25.99;99835.66;5066220;28;8938;-79
2022/04/12 09:42:49;;;;;;;;;15.60;13.60;;;;;18.36;26.01;99841.91;5065529;28;8870;-77
2022/04/12 09:45:20;;;;;;;;;15.00;14.60;;;;;18.38;25.61;99833.00;5046631;28;8975;-79
2022/04/12 09:47:50;;;;;;;;;12.00;12.00;;;;;18.38;25.29;99840.06;5081118;28;8845;-80
2022/04/12 09:50:40;;;;;;;;;11.00;11.00;;;;;18.53;25.85;99830.84;5047250;28;9078;-80
2022/04/12 09:53:11;;;;;;;;;14.40;14.00;;;;;18.49;25.64;99830.94;5086751;28;8843;-79
2022/04/12 09:55:41;;;;;;;;;0.20;0.00;;;;;18.46;25.80;99833.66;5048075;28;8860;-78
2022/04/12 09:58:14;;;;;;;;;13.60;13.00;;;;;18.43;25.47;99824.94;5046878;28;8853;-79
2022/04/12 10:00:47;;;;;;;;;14.40;13.00;;;;;18.53;26.35;99815.88;5057775;28;8856;-80
2022/04/12 10:03:19;;;;;;;;;15.00;14.60;;;;;18.50;26.43;99810.66;5049474;28;8868;-80
2022/04/12 10:05:50;;;;;;;;;15.20;14.60;;;;;18.50;26.13;99816.81;5046964;28;8864;-79
2022/04/12 10:08:23;;;;;;;;;14.40;12.00;;;;;18.44;25.58;99810.84;5044280;28;8880;-78
2022/04/12 10:10:54;;;;;;;;;14.40;13.20;;;;;18.40;25.76;99812.72;5027475;28;8850;-82
2022/04/12 10:13:23;;;;;;;;;14.00;12.20;;;;;18.43;26.31;99817.03;5041529;28;9117;-78
2022/04/12 10:15:53;;;;;;;;;17.20;13.40;;;;;18.49;25.68;99812.44;5045326;28;8897;-80
2022/04/12 10:18:22;;;;;;;;;13.00;13.00;;;;;18.54;26.15;99806.16;5028318;28;8880;-79
2022/04/12 10:20:53;;;;;;;;;9.00;9.00;;;;;18.38;25.37;99806.59;5025321;28;8959;-78
2022/04/12 10:23:26;;;;;;;;;11.00;11.00;;;;;18.53;25.62;99793.88;5055941;28;8973;-81
2022/04/12 10:25:57;;;;;;;;;11.20;11.00;;;;;18.59;25.69;99794.56;5048613;28;8846;-77
2022/04/12 10:28:28;;;;;;;;;11.60;11.60;;;;;18.62;26.03;99781.25;5015366;28;8848;-81
2022/04/12 10:31:24;;;;;;;;;12.40;12.40;;;;;18.80;25.43;99785.16;5036711;28;9680;-79
2022/04/12 10:34:11;;;;;;;;;10.60;10.60;;;;;18.92;25.08;99778.59;5031825;28;8858;-79
2022/04/12 10:37:02;;;;;;;;;10.40;10.40;;;;;18.93;25.54;99780.34;5046543;28;8850;-79
2022/04/12 10:39:57;;;;;;;;;10.20;10.20;;;;;18.97;24.67;99773.19;5029694;28;8974;-79
2022/04/12 10:42:27;;;;;;;;;12.40;11.40;;;;;19.05;24.48;99774.69;5052681;28;8911;-78
2022/04/12 10:44:57;;;;;;;;;14.00;14.00;;;;;19.11;24.58;99768.34;5067005;28;8885;-81
2022/04/12 10:47:29;;;;;;;;;13.60;12.40;;;;;19.15;24.49;99775.25;5063413;28;8912;-79
2022/04/12 10:50:01;;;;;;;;;14.80;14.40;;;;;19.09;25.18;99776.31;5069862;28;8866;-78
2022/04/12 10:52:43;;;;;;;;;11.80;11.80;;;;;19.18;25.13;99769.84;5052115;28;8852;-73
2022/04/12 10:55:15;;;;;;;;;15.20;13.00;;;;;19.32;26.01;99774.72;5051250;28;8833;-73
2022/04/12 10:57:44;;;;;;;;;18.20;16.20;;;;;19.12;25.63;99775.34;5050516;28;8860;-72
2022/04/12 11:00:15;;;;;;;;;14.00;13.20;;;;;19.22;25.99;99770.63;5065790;28;8869;-71
2022/04/12 11:02:45;;;;;;;;;14.20;12.00;;;;;19.36;25.43;99778.13;5050987;28;8884;-78
2022/04/12 11:06:02;;;;;;;;;16.00;16.00;;;;;19.09;24.94;99764.88;5063433;28;8869;-77
2022/04/12 11:08:51;;;;;;;;;13.40;13.20;;;;;19.29;25.25;99769.53;5014948;28;8936;-77
2022/04/12 11:11:22;;;;;;;;;16.20;14.40;;;;;19.29;25.30;99773.03;5032094;28;8858;-76
2022/04/12 11:13:51;;;;;;;;;18.60;16.60;;;;;19.38;24.97;99769.22;5067676;28;8871;-76
2022/04/12 11:16:26;;;;;;;;;14.00;13.20;;;;;19.48;24.76;99769.78;5053624;28;8854;-76
2022/04/12 11:18:57;;;;;;;;;15.60;15.60;;;;;19.54;24.64;99761.63;5031862;28;8865;-78
2022/04/12 11:21:28;;;;;;;;;14.80;14.00;;;;;19.68;24.62;99764.66;5034079;28;9617;-78
2022/04/12 11:24:02;;;;;;;;;15.40;15.40;;;;;19.72;24.72;99765.47;5032313;28;8860;-77
2022/04/12 11:26:40;;;;;;;;;15.20;15.20;;;;;19.93;24.54;99769.13;5012146;28;8982;-77
2022/04/12 11:29:10;;;;;;;;;14.20;14.00;;;;;20.15;24.79;99747.19;5017958;28;8941;-79
2022/04/12 11:31:43;;;;;;;;;15.60;14.80;;;;;20.28;24.46;99756.41;5014662;28;8878;-75
2022/04/12 11:34:13;;;;;;;;;11.40;11.40;;;;;20.45;24.52;99759.31;5014863;28;8858;-79
2022/04/12 11:36:50;;;;;;;;;13.40;13.00;;;;;20.47;23.42;99756.56;5031098;28;8940;-77
2022/04/12 11:39:21;;;;;;;;;15.40;14.40;;;;;20.54;23.72;99755.41;5014004;28;9024;-78
2022/04/12 11:41:50;;;;;;;;;16.20;15.80;;;;;20.67;23.57;99755.84;5010497;28;8836;-78
2022/04/12 11:44:22;;;;;;;;;17.80;17.80;;;;;20.72;23.38;99753.00;5012025;28;8856;-76
2022/04/12 11:46:56;;;;;;;;;18.20;17.60;;;;;20.93;22.91;99746.88;5011990;28;8874;-78
2022/04/12 11:49:28;;;;;;;;;17.60;16.80;;;;;21.19;22.92;99753.78;5026012;28;8850;-77